sensor_id;sensor_type;location;lat;lon;timestamp;P1;durP1;ratioP1;P2;durP2;ratioP2
2011;SDS011;1009;51.436;6.972;2024-01-27T00:01:14;10.30;;;4.20;;
2011;SDS011;1009;51.436;6.972;2024-01-27T00:03:41;15.83;;;4.20;;
2011;SDS011;1009;51.436;6.972;2024-01-27T00:06:08;13.27;;;4.67;;
2011;SDS011;1009;51.436;6.972;2024-01-27T00:08:35;12.37;;;4.47;;
2011;SDS011;1009;51.436;6.972;2024-01-27T00:11:01;16.07;;;4.77;;
2011;SDS011;1009;51.436;6.972;2024-01-27T00:13:29;9.57;;;4.70;;
2011;SDS011;1009;51.436;6.972;2024-01-27T00:15:56;14.03;;;4.00;;
2011;SDS011;1009;51.436;6.972;2024-01-27T00:18:23;10.70;;;4.80;;
2011;SDS011;1009;51.436;6.972;2024-01-27T00:20:50;11.43;;;4.93;;
2011;SDS011;1009;51.436;6.972;2024-01-27T00:23:16;10.97;;;4.53;;
2011;SDS011;1009;51.436;6.972;2024-01-27T00:25:43;18.73;;;4.90;;
2011;SDS011;1009;51.436;6.972;2024-01-27T00:28:10;11.10;;;4.80;;
2011;SDS011;1009;51.436;6.972;2024-01-27T00:30:38;12.10;;;4.10;;
2011;SDS011;1009;51.436;6.972;2024-01-27T00:33:04;10.77;;;5.80;;
2011;SDS011;1009;51.436;6.972;2024-01-27T00:35:31;6.43;;;3.30;;
2011;SDS011;1009;51.436;6.972;2024-01-27T00:37:58;9.50;;;4.17;;
2011;SDS011;1009;51.436;6.972;2024-01-27T00:40:25;16.10;;;4.20;;
2011;SDS011;1009;51.436;6.972;2024-01-27T00:42:51;12.10;;;5.10;;
2011;SDS011;1009;51.436;6.972;2024-01-27T00:45:19;11.23;;;4.67;;
2011;SDS011;1009;51.436;6.972;2024-01-27T00:47:50;10.20;;;5.20;;
2011;SDS011;1009;51.436;6.972;2024-01-27T00:50:17;12.57;;;3.60;;
2011;SDS011;1009;51.436;6.972;2024-01-27T00:52:43;12.23;;;4.60;;
2011;SDS011;1009;51.436;6.972;2024-01-27T00:55:10;12.70;;;4.67;;
2011;SDS011;1009;51.436;6.972;2024-01-27T00:57:37;14.57;;;4.40;;
2011;SDS011;1009;51.436;6.972;2024-01-27T01:00:04;10.27;;;4.57;;
2011;SDS011;1009;51.436;6.972;2024-01-27T01:02:32;11.13;;;4.77;;
2011;SDS011;1009;51.436;6.972;2024-01-27T01:05:00;8.33;;;4.30;;
2011;SDS011;1009;51.436;6.972;2024-01-27T01:07:28;9.83;;;4.57;;
2011;SDS011;1009;51.436;6.972;2024-01-27T01:09:55;8.17;;;3.93;;
2011;SDS011;1009;51.436;6.972;2024-01-27T01:12:22;9.80;;;4.00;;
2011;SDS011;1009;51.436;6.972;2024-01-27T01:14:50;8.80;;;4.23;;
2011;SDS011;1009;51.436;6.972;2024-01-27T01:17:17;13.27;;;4.47;;
2011;SDS011;1009;51.436;6.972;2024-01-27T01:19:44;7.63;;;3.57;;
2011;SDS011;1009;51.436;6.972;2024-01-27T01:22:12;7.93;;;4.03;;
2011;SDS011;1009;51.436;6.972;2024-01-27T01:24:39;10.60;;;4.20;;
2011;SDS011;1009;51.436;6.972;2024-01-27T01:27:05;7.83;;;3.80;;
2011;SDS011;1009;51.436;6.972;2024-01-27T01:29:32;11.77;;;4.60;;
2011;SDS011;1009;51.436;6.972;2024-01-27T01:32:00;10.00;;;4.17;;
2011;SDS011;1009;51.436;6.972;2024-01-27T01:34:27;10.67;;;4.30;;
2011;SDS011;1009;51.436;6.972;2024-01-27T01:36:54;11.50;;;4.00;;
2011;SDS011;1009;51.436;6.972;2024-01-27T01:39:23;10.50;;;4.20;;
2011;SDS011;1009;51.436;6.972;2024-01-27T01:41:50;9.00;;;3.57;;
2011;SDS011;1009;51.436;6.972;2024-01-27T01:44:17;14.67;;;4.17;;
2011;SDS011;1009;51.436;6.972;2024-01-27T01:46:44;15.27;;;4.20;;
2011;SDS011;1009;51.436;6.972;2024-01-27T01:49:11;6.70;;;3.93;;
2011;SDS011;1009;51.436;6.972;2024-01-27T01:51:38;12.50;;;4.07;;
2011;SDS011;1009;51.436;6.972;2024-01-27T01:54:05;16.00;;;5.77;;
2011;SDS011;1009;51.436;6.972;2024-01-27T01:56:34;10.00;;;4.10;;
2011;SDS011;1009;51.436;6.972;2024-01-27T01:59:01;10.70;;;3.90;;
2011;SDS011;1009;51.436;6.972;2024-01-27T02:01:28;9.40;;;4.00;;
2011;SDS011;1009;51.436;6.972;2024-01-27T02:03:54;9.83;;;4.80;;
2011;SDS011;1009;51.436;6.972;2024-01-27T02:06:22;8.20;;;3.80;;
2011;SDS011;1009;51.436;6.972;2024-01-27T02:08:49;9.00;;;4.33;;
2011;SDS011;1009;51.436;6.972;2024-01-27T02:11:16;11.97;;;5.20;;
2011;SDS011;1009;51.436;6.972;2024-01-27T02:13:45;14.40;;;4.53;;
2011;SDS011;1009;51.436;6.972;2024-01-27T02:16:13;11.10;;;4.33;;
2011;SDS011;1009;51.436;6.972;2024-01-27T02:18:42;7.83;;;4.10;;
2011;SDS011;1009;51.436;6.972;2024-01-27T02:21:09;8.50;;;5.50;;
2011;SDS011;1009;51.436;6.972;2024-01-27T02:23:36;8.43;;;4.40;;
2011;SDS011;1009;51.436;6.972;2024-01-27T02:26:04;14.63;;;5.57;;
2011;SDS011;1009;51.436;6.972;2024-01-27T02:28:31;10.57;;;3.87;;
2011;SDS011;1009;51.436;6.972;2024-01-27T02:30:58;11.40;;;5.67;;
2011;SDS011;1009;51.436;6.972;2024-01-27T02:33:25;13.97;;;5.07;;
2011;SDS011;1009;51.436;6.972;2024-01-27T02:35:52;15.43;;;6.20;;
2011;SDS011;1009;51.436;6.972;2024-01-27T02:38:19;9.73;;;4.57;;
2011;SDS011;1009;51.436;6.972;2024-01-27T02:40:45;6.90;;;4.33;;
2011;SDS011;1009;51.436;6.972;2024-01-27T02:43:14;10.00;;;4.33;;
2011;SDS011;1009;51.436;6.972;2024-01-27T02:45:40;7.77;;;4.33;;
2011;SDS011;1009;51.436;6.972;2024-01-27T02:48:07;15.20;;;5.00;;
2011;SDS011;1009;51.436;6.972;2024-01-27T02:50:34;13.00;;;4.83;;
2011;SDS011;1009;51.436;6.972;2024-01-27T02:53:00;11.60;;;4.93;;
2011;SDS011;1009;51.436;6.972;2024-01-27T02:55:27;11.07;;;5.40;;
2011;SDS011;1009;51.436;6.972;2024-01-27T02:57:54;8.63;;;5.50;;
2011;SDS011;1009;51.436;6.972;2024-01-27T03:00:22;14.77;;;4.67;;
2011;SDS011;1009;51.436;6.972;2024-01-27T03:02:49;9.80;;;4.97;;
2011;SDS011;1009;51.436;6.972;2024-01-27T03:05:15;10.33;;;4.73;;
2011;SDS011;1009;51.436;6.972;2024-01-27T03:07:42;16.43;;;4.70;;
2011;SDS011;1009;51.436;6.972;2024-01-27T03:10:09;11.63;;;4.80;;
2011;SDS011;1009;51.436;6.972;2024-01-27T03:12:36;10.83;;;5.37;;
2011;SDS011;1009;51.436;6.972;2024-01-27T03:15:03;10.70;;;5.00;;
2011;SDS011;1009;51.436;6.972;2024-01-27T03:17:31;11.57;;;5.00;;
2011;SDS011;1009;51.436;6.972;2024-01-27T03:19:58;10.17;;;6.27;;
2011;SDS011;1009;51.436;6.972;2024-01-27T03:22:25;12.70;;;4.60;;
2011;SDS011;1009;51.436;6.972;2024-01-27T03:24:52;8.47;;;5.27;;
2011;SDS011;1009;51.436;6.972;2024-01-27T03:27:20;14.13;;;5.17;;
2011;SDS011;1009;51.436;6.972;2024-01-27T03:29:46;6.30;;;4.83;;
2011;SDS011;1009;51.436;6.972;2024-01-27T03:32:13;8.40;;;4.20;;
2011;SDS011;1009;51.436;6.972;2024-01-27T03:34:43;10.70;;;5.13;;
2011;SDS011;1009;51.436;6.972;2024-01-27T03:37:10;14.90;;;5.60;;
2011;SDS011;1009;51.436;6.972;2024-01-27T03:39:37;10.13;;;5.33;;
2011;SDS011;1009;51.436;6.972;2024-01-27T03:42:06;11.93;;;5.67;;
2011;SDS011;1009;51.436;6.972;2024-01-27T03:44:33;13.43;;;6.13;;
2011;SDS011;1009;51.436;6.972;2024-01-27T03:47:00;9.40;;;5.03;;
2011;SDS011;1009;51.436;6.972;2024-01-27T03:49:27;9.03;;;5.33;;
2011;SDS011;1009;51.436;6.972;2024-01-27T03:51:55;10.67;;;5.97;;
2011;SDS011;1009;51.436;6.972;2024-01-27T03:54:21;9.50;;;5.53;;
2011;SDS011;1009;51.436;6.972;2024-01-27T03:56:48;11.50;;;5.97;;
2011;SDS011;1009;51.436;6.972;2024-01-27T03:59:15;9.83;;;5.70;;
2011;SDS011;1009;51.436;6.972;2024-01-27T04:01:42;9.70;;;5.77;;
2011;SDS011;1009;51.436;6.972;2024-01-27T04:04:10;12.83;;;5.30;;
2011;SDS011;1009;51.436;6.972;2024-01-27T04:06:36;11.73;;;6.60;;
2011;SDS011;1009;51.436;6.972;2024-01-27T04:09:05;11.07;;;6.00;;
2011;SDS011;1009;51.436;6.972;2024-01-27T04:11:33;21.43;;;6.77;;
2011;SDS011;1009;51.436;6.972;2024-01-27T04:14:00;9.17;;;5.73;;
2011;SDS011;1009;51.436;6.972;2024-01-27T04:16:27;14.33;;;6.93;;
2011;SDS011;1009;51.436;6.972;2024-01-27T04:18:54;10.63;;;6.00;;
2011;SDS011;1009;51.436;6.972;2024-01-27T04:21:21;11.50;;;5.33;;
2011;SDS011;1009;51.436;6.972;2024-01-27T04:23:48;20.70;;;6.77;;
2011;SDS011;1009;51.436;6.972;2024-01-27T04:26:16;15.07;;;6.50;;
2011;SDS011;1009;51.436;6.972;2024-01-27T04:28:42;11.53;;;6.37;;
2011;SDS011;1009;51.436;6.972;2024-01-27T04:31:10;10.60;;;5.50;;
2011;SDS011;1009;51.436;6.972;2024-01-27T04:33:36;10.70;;;6.10;;
2011;SDS011;1009;51.436;6.972;2024-01-27T04:36:04;14.43;;;7.60;;
2011;SDS011;1009;51.436;6.972;2024-01-27T04:38:31;9.30;;;5.27;;
2011;SDS011;1009;51.436;6.972;2024-01-27T04:40:59;15.93;;;6.90;;
2011;SDS011;1009;51.436;6.972;2024-01-27T04:43:27;14.00;;;6.63;;
2011;SDS011;1009;51.436;6.972;2024-01-27T04:45:53;16.03;;;6.40;;
2011;SDS011;1009;51.436;6.972;2024-01-27T04:48:20;10.23;;;6.30;;
2011;SDS011;1009;51.436;6.972;2024-01-27T04:50:47;15.60;;;7.87;;
2011;SDS011;1009;51.436;6.972;2024-01-27T04:53:14;17.20;;;6.60;;
2011;SDS011;1009;51.436;6.972;2024-01-27T04:55:41;10.53;;;7.10;;
2011;SDS011;1009;51.436;6.972;2024-01-27T04:58:08;25.43;;;7.23;;
2011;SDS011;1009;51.436;6.972;2024-01-27T05:00:37;13.50;;;6.37;;
2011;SDS011;1009;51.436;6.972;2024-01-27T05:03:04;13.30;;;6.50;;
2011;SDS011;1009;51.436;6.972;2024-01-27T05:05:32;10.13;;;6.00;;
2011;SDS011;1009;51.436;6.972;2024-01-27T05:07:59;12.27;;;6.00;;
2011;SDS011;1009;51.436;6.972;2024-01-27T05:10:26;8.23;;;5.80;;
2011;SDS011;1009;51.436;6.972;2024-01-27T05:12:53;10.60;;;5.73;;
2011;SDS011;1009;51.436;6.972;2024-01-27T05:15:21;16.57;;;7.40;;
2011;SDS011;1009;51.436;6.972;2024-01-27T05:17:49;18.13;;;6.50;;
2011;SDS011;1009;51.436;6.972;2024-01-27T05:20:16;12.57;;;6.67;;
2011;SDS011;1009;51.436;6.972;2024-01-27T05:22:44;15.20;;;6.50;;
2011;SDS011;1009;51.436;6.972;2024-01-27T05:25:10;15.13;;;6.30;;
2011;SDS011;1009;51.436;6.972;2024-01-27T05:27:38;10.80;;;6.47;;
2011;SDS011;1009;51.436;6.972;2024-01-27T05:30:05;11.70;;;6.90;;
2011;SDS011;1009;51.436;6.972;2024-01-27T05:32:32;16.57;;;8.27;;
2011;SDS011;1009;51.436;6.972;2024-01-27T05:35:00;9.60;;;6.07;;
2011;SDS011;1009;51.436;6.972;2024-01-27T05:37:27;13.50;;;6.33;;
2011;SDS011;1009;51.436;6.972;2024-01-27T05:39:54;19.60;;;6.80;;
2011;SDS011;1009;51.436;6.972;2024-01-27T05:42:21;11.83;;;6.10;;
2011;SDS011;1009;51.436;6.972;2024-01-27T05:44:48;13.13;;;5.70;;
2011;SDS011;1009;51.436;6.972;2024-01-27T05:47:15;9.17;;;5.03;;
2011;SDS011;1009;51.436;6.972;2024-01-27T05:49:42;12.00;;;6.33;;
2011;SDS011;1009;51.436;6.972;2024-01-27T05:52:10;14.17;;;5.80;;
2011;SDS011;1009;51.436;6.972;2024-01-27T05:54:36;12.63;;;5.83;;
2011;SDS011;1009;51.436;6.972;2024-01-27T05:57:05;10.90;;;6.60;;
2011;SDS011;1009;51.436;6.972;2024-01-27T05:59:32;12.93;;;6.13;;
2011;SDS011;1009;51.436;6.972;2024-01-27T06:01:58;9.33;;;5.63;;
2011;SDS011;1009;51.436;6.972;2024-01-27T06:04:26;19.80;;;6.03;;
2011;SDS011;1009;51.436;6.972;2024-01-27T06:06:53;9.10;;;5.00;;
2011;SDS011;1009;51.436;6.972;2024-01-27T06:09:21;13.40;;;5.40;;
2011;SDS011;1009;51.436;6.972;2024-01-27T06:11:48;12.10;;;5.20;;
2011;SDS011;1009;51.436;6.972;2024-01-27T06:14:14;15.47;;;6.30;;
2011;SDS011;1009;51.436;6.972;2024-01-27T06:16:41;12.43;;;5.87;;
2011;SDS011;1009;51.436;6.972;2024-01-27T06:19:08;13.47;;;5.93;;
2011;SDS011;1009;51.436;6.972;2024-01-27T06:21:35;8.40;;;4.83;;
2011;SDS011;1009;51.436;6.972;2024-01-27T06:24:02;14.93;;;5.90;;
2011;SDS011;1009;51.436;6.972;2024-01-27T06:26:30;11.87;;;5.60;;
2011;SDS011;1009;51.436;6.972;2024-01-27T06:28:56;14.37;;;5.70;;
2011;SDS011;1009;51.436;6.972;2024-01-27T06:31:23;10.30;;;6.23;;
2011;SDS011;1009;51.436;6.972;2024-01-27T06:33:50;6.87;;;5.40;;
2011;SDS011;1009;51.436;6.972;2024-01-27T06:36:17;11.83;;;4.80;;
2011;SDS011;1009;51.436;6.972;2024-01-27T06:38:44;10.50;;;6.10;;
2011;SDS011;1009;51.436;6.972;2024-01-27T06:41:11;17.60;;;6.90;;
2011;SDS011;1009;51.436;6.972;2024-01-27T06:43:40;16.83;;;7.17;;
2011;SDS011;1009;51.436;6.972;2024-01-27T06:46:06;13.90;;;6.10;;
2011;SDS011;1009;51.436;6.972;2024-01-27T06:48:33;13.83;;;6.73;;
2011;SDS011;1009;51.436;6.972;2024-01-27T06:51:00;11.40;;;5.40;;
2011;SDS011;1009;51.436;6.972;2024-01-27T06:53:27;16.17;;;6.70;;
2011;SDS011;1009;51.436;6.972;2024-01-27T06:55:53;11.37;;;6.40;;
2011;SDS011;1009;51.436;6.972;2024-01-27T06:58:20;14.70;;;5.70;;
2011;SDS011;1009;51.436;6.972;2024-01-27T07:00:50;11.60;;;6.30;;
2011;SDS011;1009;51.436;6.972;2024-01-27T07:03:16;13.83;;;6.40;;
2011;SDS011;1009;51.436;6.972;2024-01-27T07:05:43;14.13;;;7.17;;
2011;SDS011;1009;51.436;6.972;2024-01-27T07:08:10;10.50;;;5.87;;
2011;SDS011;1009;51.436;6.972;2024-01-27T07:10:37;17.07;;;7.57;;
2011;SDS011;1009;51.436;6.972;2024-01-27T07:13:05;11.13;;;5.90;;
2011;SDS011;1009;51.436;6.972;2024-01-27T07:15:32;13.90;;;6.50;;
2011;SDS011;1009;51.436;6.972;2024-01-27T07:18:00;13.17;;;7.33;;
2011;SDS011;1009;51.436;6.972;2024-01-27T07:20:27;15.20;;;6.87;;
2011;SDS011;1009;51.436;6.972;2024-01-27T07:22:54;21.07;;;6.03;;
2011;SDS011;1009;51.436;6.972;2024-01-27T07:25:20;14.13;;;5.93;;
2011;SDS011;1009;51.436;6.972;2024-01-27T07:27:47;15.80;;;6.10;;
2011;SDS011;1009;51.436;6.972;2024-01-27T07:30:14;17.97;;;6.50;;
2011;SDS011;1009;51.436;6.972;2024-01-27T07:32:41;10.80;;;5.13;;
2011;SDS011;1009;51.436;6.972;2024-01-27T07:35:10;9.93;;;5.47;;
2011;SDS011;1009;51.436;6.972;2024-01-27T07:37:37;15.40;;;5.50;;
2011;SDS011;1009;51.436;6.972;2024-01-27T07:40:04;10.03;;;5.77;;
2011;SDS011;1009;51.436;6.972;2024-01-27T07:42:34;12.37;;;6.00;;
2011;SDS011;1009;51.436;6.972;2024-01-27T07:45:00;14.40;;;5.87;;
2011;SDS011;1009;51.436;6.972;2024-01-27T07:47:27;6.80;;;4.77;;
2011;SDS011;1009;51.436;6.972;2024-01-27T07:49:54;12.93;;;6.20;;
2011;SDS011;1009;51.436;6.972;2024-01-27T07:52:22;11.87;;;5.23;;
2011;SDS011;1009;51.436;6.972;2024-01-27T07:54:49;9.43;;;5.33;;
2011;SDS011;1009;51.436;6.972;2024-01-27T07:57:15;9.17;;;5.30;;
2011;SDS011;1009;51.436;6.972;2024-01-27T07:59:42;14.30;;;5.63;;
2011;SDS011;1009;51.436;6.972;2024-01-27T08:02:09;13.97;;;5.60;;
2011;SDS011;1009;51.436;6.972;2024-01-27T08:04:37;10.50;;;5.27;;
2011;SDS011;1009;51.436;6.972;2024-01-27T08:07:04;15.93;;;6.10;;
2011;SDS011;1009;51.436;6.972;2024-01-27T08:09:36;10.10;;;5.87;;
2011;SDS011;1009;51.436;6.972;2024-01-27T08:12:04;13.70;;;6.20;;
2011;SDS011;1009;51.436;6.972;2024-01-27T08:14:31;18.60;;;6.10;;
2011;SDS011;1009;51.436;6.972;2024-01-27T08:17:00;13.93;;;6.33;;
2011;SDS011;1009;51.436;6.972;2024-01-27T08:19:28;13.07;;;5.53;;
2011;SDS011;1009;51.436;6.972;2024-01-27T08:21:55;13.10;;;6.10;;
2011;SDS011;1009;51.436;6.972;2024-01-27T08:24:21;16.23;;;6.07;;
2011;SDS011;1009;51.436;6.972;2024-01-27T08:26:50;8.00;;;4.53;;
2011;SDS011;1009;51.436;6.972;2024-01-27T08:29:17;17.40;;;5.77;;
2011;SDS011;1009;51.436;6.972;2024-01-27T08:31:43;8.57;;;4.27;;
2011;SDS011;1009;51.436;6.972;2024-01-27T08:34:10;25.97;;;4.67;;
2011;SDS011;1009;51.436;6.972;2024-01-27T08:36:38;14.43;;;5.50;;
2011;SDS011;1009;51.436;6.972;2024-01-27T08:39:05;15.43;;;5.00;;
2011;SDS011;1009;51.436;6.972;2024-01-27T08:41:34;13.43;;;4.47;;
2011;SDS011;1009;51.436;6.972;2024-01-27T08:44:03;10.27;;;5.00;;
2011;SDS011;1009;51.436;6.972;2024-01-27T08:46:30;13.53;;;4.80;;
2011;SDS011;1009;51.436;6.972;2024-01-27T08:48:56;12.80;;;4.30;;
2011;SDS011;1009;51.436;6.972;2024-01-27T08:51:23;11.13;;;4.60;;
2011;SDS011;1009;51.436;6.972;2024-01-27T08:53:50;10.37;;;4.57;;
2011;SDS011;1009;51.436;6.972;2024-01-27T08:56:17;11.47;;;4.30;;
2011;SDS011;1009;51.436;6.972;2024-01-27T08:58:44;14.50;;;4.50;;
2011;SDS011;1009;51.436;6.972;2024-01-27T09:01:15;11.27;;;4.30;;
2011;SDS011;1009;51.436;6.972;2024-01-27T09:03:42;10.93;;;4.30;;
2011;SDS011;1009;51.436;6.972;2024-01-27T09:06:08;10.20;;;5.63;;
2011;SDS011;1009;51.436;6.972;2024-01-27T09:08:36;11.30;;;4.43;;
2011;SDS011;1009;51.436;6.972;2024-01-27T09:11:03;12.20;;;5.80;;
2011;SDS011;1009;51.436;6.972;2024-01-27T09:13:30;12.23;;;4.40;;
2011;SDS011;1009;51.436;6.972;2024-01-27T09:15:57;12.50;;;5.63;;
2011;SDS011;1009;51.436;6.972;2024-01-27T09:18:25;14.90;;;5.73;;
2011;SDS011;1009;51.436;6.972;2024-01-27T09:20:52;14.27;;;5.90;;
2011;SDS011;1009;51.436;6.972;2024-01-27T09:23:19;11.43;;;4.40;;
2011;SDS011;1009;51.436;6.972;2024-01-27T09:25:45;14.93;;;5.30;;
2011;SDS011;1009;51.436;6.972;2024-01-27T09:28:12;8.93;;;3.97;;
2011;SDS011;1009;51.436;6.972;2024-01-27T09:30:41;13.53;;;4.90;;
2011;SDS011;1009;51.436;6.972;2024-01-27T09:33:07;10.73;;;3.60;;
2011;SDS011;1009;51.436;6.972;2024-01-27T09:35:36;11.93;;;4.90;;
2011;SDS011;1009;51.436;6.972;2024-01-27T09:38:03;8.50;;;3.93;;
2011;SDS011;1009;51.436;6.972;2024-01-27T09:40:30;10.37;;;3.73;;
2011;SDS011;1009;51.436;6.972;2024-01-27T09:42:58;10.33;;;4.67;;
2011;SDS011;1009;51.436;6.972;2024-01-27T09:45:26;13.57;;;5.23;;
2011;SDS011;1009;51.436;6.972;2024-01-27T09:47:53;8.77;;;4.33;;
2011;SDS011;1009;51.436;6.972;2024-01-27T09:50:22;15.93;;;5.13;;
2011;SDS011;1009;51.436;6.972;2024-01-27T09:52:50;14.07;;;5.37;;
2011;SDS011;1009;51.436;6.972;2024-01-27T09:55:17;13.57;;;5.00;;
2011;SDS011;1009;51.436;6.972;2024-01-27T09:57:44;7.10;;;4.43;;
2011;SDS011;1009;51.436;6.972;2024-01-27T10:00:11;8.93;;;4.87;;
2011;SDS011;1009;51.436;6.972;2024-01-27T10:02:39;21.57;;;5.57;;
2011;SDS011;1009;51.436;6.972;2024-01-27T10:05:07;11.83;;;5.33;;
2011;SDS011;1009;51.436;6.972;2024-01-27T10:07:35;10.80;;;4.60;;
2011;SDS011;1009;51.436;6.972;2024-01-27T10:10:03;16.13;;;4.93;;
2011;SDS011;1009;51.436;6.972;2024-01-27T10:12:31;9.73;;;4.50;;
2011;SDS011;1009;51.436;6.972;2024-01-27T10:14:58;9.73;;;3.60;;
2011;SDS011;1009;51.436;6.972;2024-01-27T10:17:25;8.13;;;4.93;;
2011;SDS011;1009;51.436;6.972;2024-01-27T10:20:00;9.27;;;4.20;;
2011;SDS011;1009;51.436;6.972;2024-01-27T10:22:28;12.03;;;4.00;;
2011;SDS011;1009;51.436;6.972;2024-01-27T10:24:55;8.67;;;3.60;;
2011;SDS011;1009;51.436;6.972;2024-01-27T10:27:23;13.57;;;5.00;;
2011;SDS011;1009;51.436;6.972;2024-01-27T10:29:53;13.10;;;4.50;;
2011;SDS011;1009;51.436;6.972;2024-01-27T10:32:20;9.60;;;3.57;;
2011;SDS011;1009;51.436;6.972;2024-01-27T10:34:48;9.67;;;3.43;;
2011;SDS011;1009;51.436;6.972;2024-01-27T10:37:15;13.60;;;3.70;;
2011;SDS011;1009;51.436;6.972;2024-01-27T10:39:49;10.80;;;4.80;;
2011;SDS011;1009;51.436;6.972;2024-01-27T10:42:26;13.03;;;4.40;;
2011;SDS011;1009;51.436;6.972;2024-01-27T10:44:54;15.30;;;5.20;;
2011;SDS011;1009;51.436;6.972;2024-01-27T10:47:23;13.67;;;4.30;;
2011;SDS011;1009;51.436;6.972;2024-01-27T10:49:52;13.60;;;4.57;;
2011;SDS011;1009;51.436;6.972;2024-01-27T10:52:21;9.30;;;3.57;;
2011;SDS011;1009;51.436;6.972;2024-01-27T10:54:53;8.90;;;5.40;;
2011;SDS011;1009;51.436;6.972;2024-01-27T10:57:26;11.40;;;4.27;;
2011;SDS011;1009;51.436;6.972;2024-01-27T10:59:53;12.37;;;4.23;;
2011;SDS011;1009;51.436;6.972;2024-01-27T11:02:21;13.53;;;4.07;;
2011;SDS011;1009;51.436;6.972;2024-01-27T11:04:49;12.00;;;4.57;;
2011;SDS011;1009;51.436;6.972;2024-01-27T11:07:18;5.93;;;3.60;;
2011;SDS011;1009;51.436;6.972;2024-01-27T11:09:47;13.40;;;4.10;;
2011;SDS011;1009;51.436;6.972;2024-01-27T11:12:16;13.13;;;4.63;;
2011;SDS011;1009;51.436;6.972;2024-01-27T11:14:47;9.07;;;4.00;;
2011;SDS011;1009;51.436;6.972;2024-01-27T11:17:14;12.40;;;3.73;;
2011;SDS011;1009;51.436;6.972;2024-01-27T11:19:41;12.53;;;4.37;;
2011;SDS011;1009;51.436;6.972;2024-01-27T11:22:08;11.20;;;4.17;;
2011;SDS011;1009;51.436;6.972;2024-01-27T11:24:49;9.77;;;3.90;;
2011;SDS011;1009;51.436;6.972;2024-01-27T11:27:15;9.00;;;4.53;;
2011;SDS011;1009;51.436;6.972;2024-01-27T11:29:47;11.10;;;4.37;;
2011;SDS011;1009;51.436;6.972;2024-01-27T11:32:14;12.60;;;4.90;;
2011;SDS011;1009;51.436;6.972;2024-01-27T11:34:42;13.50;;;4.40;;
2011;SDS011;1009;51.436;6.972;2024-01-27T11:37:10;8.20;;;4.07;;
2011;SDS011;1009;51.436;6.972;2024-01-27T11:39:38;7.10;;;3.70;;
2011;SDS011;1009;51.436;6.972;2024-01-27T11:42:04;6.50;;;4.43;;
2011;SDS011;1009;51.436;6.972;2024-01-27T11:44:33;14.87;;;4.50;;
2011;SDS011;1009;51.436;6.972;2024-01-27T11:47:02;6.67;;;3.70;;
2011;SDS011;1009;51.436;6.972;2024-01-27T11:49:29;11.83;;;4.03;;
2011;SDS011;1009;51.436;6.972;2024-01-27T11:51:56;11.37;;;4.60;;
2011;SDS011;1009;51.436;6.972;2024-01-27T11:54:23;10.00;;;3.93;;
2011;SDS011;1009;51.436;6.972;2024-01-27T11:56:50;8.70;;;3.53;;
2011;SDS011;1009;51.436;6.972;2024-01-27T11:59:16;8.50;;;3.90;;
2011;SDS011;1009;51.436;6.972;2024-01-27T12:01:43;6.97;;;3.33;;
2011;SDS011;1009;51.436;6.972;2024-01-27T12:04:11;14.03;;;4.63;;
2011;SDS011;1009;51.436;6.972;2024-01-27T12:06:39;15.87;;;4.80;;
2011;SDS011;1009;51.436;6.972;2024-01-27T12:09:06;12.90;;;5.60;;
2011;SDS011;1009;51.436;6.972;2024-01-27T12:11:37;10.80;;;4.73;;
2011;SDS011;1009;51.436;6.972;2024-01-27T12:14:05;7.93;;;3.80;;
2011;SDS011;1009;51.436;6.972;2024-01-27T12:16:31;10.17;;;3.90;;
2011;SDS011;1009;51.436;6.972;2024-01-27T12:18:58;11.50;;;2.73;;
2011;SDS011;1009;51.436;6.972;2024-01-27T12:21:27;7.77;;;3.20;;
2011;SDS011;1009;51.436;6.972;2024-01-27T12:23:54;7.87;;;3.30;;
2011;SDS011;1009;51.436;6.972;2024-01-27T12:26:22;10.33;;;3.43;;
2011;SDS011;1009;51.436;6.972;2024-01-27T12:28:50;9.37;;;3.93;;
2011;SDS011;1009;51.436;6.972;2024-01-27T12:31:17;10.20;;;3.87;;
2011;SDS011;1009;51.436;6.972;2024-01-27T12:33:48;8.73;;;3.53;;
2011;SDS011;1009;51.436;6.972;2024-01-27T12:36:16;9.20;;;3.40;;
2011;SDS011;1009;51.436;6.972;2024-01-27T12:38:47;15.10;;;4.70;;
2011;SDS011;1009;51.436;6.972;2024-01-27T12:41:18;10.30;;;3.50;;
2011;SDS011;1009;51.436;6.972;2024-01-27T12:43:45;5.43;;;3.47;;
2011;SDS011;1009;51.436;6.972;2024-01-27T12:46:12;7.47;;;3.13;;
2011;SDS011;1009;51.436;6.972;2024-01-27T12:48:40;6.53;;;3.60;;
2011;SDS011;1009;51.436;6.972;2024-01-27T12:51:07;8.23;;;3.43;;
2011;SDS011;1009;51.436;6.972;2024-01-27T12:53:34;8.57;;;3.30;;
2011;SDS011;1009;51.436;6.972;2024-01-27T12:56:02;14.03;;;4.80;;
2011;SDS011;1009;51.436;6.972;2024-01-27T12:58:29;12.30;;;3.07;;
2011;SDS011;1009;51.436;6.972;2024-01-27T13:00:56;11.07;;;3.77;;
2011;SDS011;1009;51.436;6.972;2024-01-27T13:03:23;11.83;;;3.70;;
2011;SDS011;1009;51.436;6.972;2024-01-27T13:05:49;8.87;;;3.10;;
2011;SDS011;1009;51.436;6.972;2024-01-27T13:08:16;10.63;;;3.50;;
2011;SDS011;1009;51.436;6.972;2024-01-27T13:10:43;6.57;;;3.07;;
2011;SDS011;1009;51.436;6.972;2024-01-27T13:13:11;6.77;;;2.83;;
2011;SDS011;1009;51.436;6.972;2024-01-27T13:15:37;5.43;;;2.97;;
2011;SDS011;1009;51.436;6.972;2024-01-27T13:18:04;9.83;;;3.17;;
2011;SDS011;1009;51.436;6.972;2024-01-27T13:20:32;5.33;;;2.90;;
2011;SDS011;1009;51.436;6.972;2024-01-27T13:22:58;10.73;;;3.27;;
2011;SDS011;1009;51.436;6.972;2024-01-27T13:25:25;7.30;;;2.80;;
2011;SDS011;1009;51.436;6.972;2024-01-27T13:27:52;14.33;;;3.67;;
2011;SDS011;1009;51.436;6.972;2024-01-27T13:30:20;6.27;;;2.70;;
2011;SDS011;1009;51.436;6.972;2024-01-27T13:32:46;6.43;;;3.33;;
2011;SDS011;1009;51.436;6.972;2024-01-27T13:35:14;10.13;;;2.93;;
2011;SDS011;1009;51.436;6.972;2024-01-27T13:37:41;9.97;;;4.10;;
2011;SDS011;1009;51.436;6.972;2024-01-27T13:40:08;7.33;;;3.13;;
2011;SDS011;1009;51.436;6.972;2024-01-27T13:42:35;8.30;;;2.50;;
2011;SDS011;1009;51.436;6.972;2024-01-27T13:45:03;12.80;;;3.00;;
2011;SDS011;1009;51.436;6.972;2024-01-27T13:47:31;8.67;;;3.13;;
2011;SDS011;1009;51.436;6.972;2024-01-27T13:49:58;5.40;;;2.30;;
2011;SDS011;1009;51.436;6.972;2024-01-27T13:52:25;8.47;;;2.70;;
2011;SDS011;1009;51.436;6.972;2024-01-27T13:54:54;8.50;;;2.57;;
2011;SDS011;1009;51.436;6.972;2024-01-27T13:57:20;12.93;;;3.00;;
2011;SDS011;1009;51.436;6.972;2024-01-27T13:59:47;12.80;;;3.00;;
2011;SDS011;1009;51.436;6.972;2024-01-27T14:02:14;11.53;;;3.47;;
2011;SDS011;1009;51.436;6.972;2024-01-27T14:04:42;8.83;;;2.60;;
2011;SDS011;1009;51.436;6.972;2024-01-27T14:07:09;8.33;;;3.43;;
2011;SDS011;1009;51.436;6.972;2024-01-27T14:09:36;5.73;;;2.70;;
2011;SDS011;1009;51.436;6.972;2024-01-27T14:12:03;4.00;;;2.40;;
2011;SDS011;1009;51.436;6.972;2024-01-27T14:14:31;6.43;;;2.60;;
2011;SDS011;1009;51.436;6.972;2024-01-27T14:16:57;9.33;;;3.30;;
2011;SDS011;1009;51.436;6.972;2024-01-27T14:19:24;15.50;;;3.37;;
2011;SDS011;1009;51.436;6.972;2024-01-27T14:21:52;9.23;;;3.10;;
2011;SDS011;1009;51.436;6.972;2024-01-27T14:24:19;7.90;;;3.00;;
2011;SDS011;1009;51.436;6.972;2024-01-27T14:26:46;11.63;;;2.53;;
2011;SDS011;1009;51.436;6.972;2024-01-27T14:29:13;12.43;;;2.90;;
2011;SDS011;1009;51.436;6.972;2024-01-27T14:31:41;5.83;;;2.50;;
2011;SDS011;1009;51.436;6.972;2024-01-27T14:34:08;9.43;;;2.27;;
2011;SDS011;1009;51.436;6.972;2024-01-27T14:36:35;9.23;;;2.97;;
2011;SDS011;1009;51.436;6.972;2024-01-27T14:39:04;5.80;;;2.70;;
2011;SDS011;1009;51.436;6.972;2024-01-27T14:41:35;11.03;;;3.40;;
2011;SDS011;1009;51.436;6.972;2024-01-27T14:44:02;7.80;;;2.67;;
2011;SDS011;1009;51.436;6.972;2024-01-27T14:46:29;7.47;;;3.20;;
2011;SDS011;1009;51.436;6.972;2024-01-27T14:48:56;6.93;;;3.50;;
2011;SDS011;1009;51.436;6.972;2024-01-27T14:51:22;17.37;;;3.40;;
2011;SDS011;1009;51.436;6.972;2024-01-27T14:53:49;6.53;;;2.30;;
2011;SDS011;1009;51.436;6.972;2024-01-27T14:56:17;12.77;;;2.40;;
2011;SDS011;1009;51.436;6.972;2024-01-27T14:58:44;9.40;;;2.70;;
2011;SDS011;1009;51.436;6.972;2024-01-27T15:01:16;7.07;;;2.30;;
2011;SDS011;1009;51.436;6.972;2024-01-27T15:03:43;9.63;;;2.57;;
2011;SDS011;1009;51.436;6.972;2024-01-27T15:06:10;6.37;;;2.70;;